Time,TemperatureF,DewpointF,PressureIn,WindDirection,WindDirectionDegrees,WindSpeedMPH,WindSpeedGustMPH,Humidity,HourlyPrecipIn,Conditions,Clouds,dailyrainin,SoftwareType,DateUTC
2013-06-29 00:05:00,78.4,51.0,29.76,SE,126,5.0,7.0,38,0.00,,,0.00,weatherlink.com 1.10,2013-06-29 05:05:00,
2013-06-29 00:20:00,78.1,50.0,29.76,SE,136,2.0,7.0,38,0.00,,,0.00,weatherlink.com 1.10,2013-06-29 05:20:00,
2013-06-29 00:35:00,77.4,50.0,29.76,ESE,113,4.0,7.0,39,0.00,,,0.00,weatherlink.com 1.10,2013-06-29 05:35:00,
2013-06-29 00:50:00,77.2,51.0,29.76,ESE,111,2.0,5.0,40,0.00,,,0.00,weatherlink.com 1.10,2013-06-29 05:50:00,
2013-06-29 01:05:00,76.8,51.0,29.76,ESE,111,1.0,7.0,40,0.00,,,0.00,weatherlink.com 1.10,2013-06-29 06:05:00,
2013-06-29 01:20:00,76.4,51.0,29.76,ESE,118,0.0,2.0,41,0.00,,,0.00,weatherlink.com 1.10,2013-06-29 06:20:00,
2013-06-29 01:35:00,76.5,51.0,29.76,ESE,117,0.0,1.0,41,0.00,,,0.00,weatherlink.com 1.10,2013-06-29 06:35:00,
2013-06-29 01:58:00,76.3,51.0,29.76,ESE,117,0.0,1.0,42,0.00,,,0.00,weatherlink.com 1.10,2013-06-29 06:58:00,
2013-06-29 02:05:00,76.0,51.0,29.76,ESE,117,0.0,1.0,42,0.00,,,0.00,weatherlink.com 1.10,2013-06-29 07:05:00,
2013-06-29 02:20:00,75.2,52.0,29.75,ESE,117,0.0,0.0,44,0.00,,,0.00,weatherlink.com 1.10,2013-06-29 07:20:00,
2013-06-29 02:35:00,74.9,52.0,29.75,ESE,117,0.0,0.0,45,0.00,,,0.00,weatherlink.com 1.10,2013-06-29 07:35:00,
2013-06-29 02:50:00,75.6,51.0,29.75,ESE,117,0.0,0.0,43,0.00,,,0.00,weatherlink.com 1.10,2013-06-29 07:50:00,
2013-06-29 03:05:00,75.8,52.0,29.75,ESE,117,0.0,1.0,43,0.00,,,0.00,weatherlink.com 1.10,2013-06-29 08:05:00,
2013-06-29 03:20:00,74.7,52.0,29.74,ESE,117,0.0,1.0,46,0.00,,,0.00,weatherlink.com 1.10,2013-06-29 08:20:00,
2013-06-29 03:35:00,74.4,53.0,29.74,ESE,117,0.0,1.0,47,0.00,,,0.00,weatherlink.com 1.10,2013-06-29 08:35:00,
2013-06-29 03:50:00,73.4,53.0,29.74,ESE,117,0.0,0.0,49,0.00,,,0.00,weatherlink.com 1.10,2013-06-29 08:50:00,
2013-06-29 04:05:00,71.7,53.0,29.74,ESE,117,0.0,0.0,52,0.00,,,0.00,weatherlink.com 1.10,2013-06-29 09:05:00,
2013-06-29 04:21:00,72.5,53.0,29.74,ESE,117,0.0,2.0,50,0.00,,,0.00,weatherlink.com 1.10,2013-06-29 09:21:00,
2013-06-29 04:36:00,73.1,53.0,29.74,ESE,117,0.0,2.0,49,0.00,,,0.00,weatherlink.com 1.10,2013-06-29 09:36:00,
2013-06-29 04:51:00,73.5,52.0,29.74,ESE,117,0.0,1.0,48,0.00,,,0.00,weatherlink.com 1.10,2013-06-29 09:51:00,
2013-06-29 05:06:00,73.3,52.0,29.74,ESE,117,0.0,1.0,48,0.00,,,0.00,weatherlink.com 1.10,2013-06-29 10:06:00,
2013-06-29 05:21:00,69.7,53.0,29.74,ESE,117,0.0,0.0,56,0.00,,,0.00,weatherlink.com 1.10,2013-06-29 10:21:00,
2013-06-29 05:36:00,70.7,53.0,29.75,ESE,117,0.0,0.0,54,0.00,,,0.00,weatherlink.com 1.10,2013-06-29 10:36:00,
2013-06-29 05:51:00,71.5,53.0,29.75,ESE,117,0.0,0.0,52,0.00,,,0.00,weatherlink.com 1.10,2013-06-29 10:51:00,
2013-06-29 06:06:00,71.7,52.0,29.75,ESE,117,0.0,0.0,51,0.00,,,0.00,weatherlink.com 1.10,2013-06-29 11:06:00,
2013-06-29 06:21:00,71.6,52.0,29.75,ESE,117,0.0,1.0,51,0.00,,,0.00,weatherlink.com 1.10,2013-06-29 11:21:00,
2013-06-29 06:36:00,71.9,52.0,29.75,ESE,117,0.0,0.0,50,0.00,,,0.00,weatherlink.com 1.10,2013-06-29 11:36:00,
2013-06-29 06:51:00,70.8,53.0,29.75,ESE,117,0.0,0.0,53,0.00,,,0.00,weatherlink.com 1.10,2013-06-29 11:51:00,
2013-06-29 07:06:00,70.6,52.0,29.76,ESE,117,0.0,0.0,53,0.00,,,0.00,weatherlink.com 1.10,2013-06-29 12:06:00,
2013-06-29 07:21:00,69.7,54.0,29.76,ESE,117,0.0,0.0,57,0.00,,,0.00,weatherlink.com 1.10,2013-06-29 12:21:00,
2013-06-29 07:36:00,70.0,53.0,29.77,ESE,117,0.0,1.0,56,0.00,,,0.00,weatherlink.com 1.10,2013-06-29 12:36:00,
2013-06-29 07:51:00,70.5,53.0,29.77,ESE,118,0.0,1.0,55,0.00,,,0.00,weatherlink.com 1.10,2013-06-29 12:51:00,
2013-06-29 08:06:00,70.7,54.0,29.77,ESE,117,0.0,0.0,55,0.00,,,0.00,weatherlink.com 1.10,2013-06-29 13:06:00,
2013-06-29 08:21:00,73.4,54.0,29.78,ESE,117,0.0,1.0,50,0.00,,,0.00,weatherlink.com 1.10,2013-06-29 13:21:00,
2013-06-29 08:36:00,75.8,55.0,29.78,ESE,117,0.0,0.0,49,0.00,,,0.00,weatherlink.com 1.10,2013-06-29 13:36:00,
2013-06-29 08:51:00,77.2,55.0,29.78,ESE,117,0.0,0.0,47,0.00,,,0.00,weatherlink.com 1.10,2013-06-29 13:51:00,
2013-06-29 09:06:00,80.1,54.0,29.78,ESE,117,0.0,0.0,40,0.00,,,0.00,weatherlink.com 1.10,2013-06-29 14:06:00,
2013-06-29 09:21:00,82.4,56.0,29.77,ESE,117,0.0,0.0,41,0.00,,,0.00,weatherlink.com 1.10,2013-06-29 14:21:00,
2013-06-29 09:36:00,83.1,54.0,29.77,ESE,117,0.0,0.0,37,0.00,,,0.00,weatherlink.com 1.10,2013-06-29 14:36:00,
2013-06-29 09:51:00,84.7,55.0,29.77,ESE,117,0.0,0.0,36,0.00,,,0.00,weatherlink.com 1.10,2013-06-29 14:51:00,
2013-06-29 10:06:00,85.3,55.0,29.76,ESE,118,0.0,0.0,35,0.00,,,0.00,weatherlink.com 1.10,2013-06-29 15:06:00,
2013-06-29 10:21:00,86.4,52.0,29.76,ESE,118,0.0,0.0,31,0.00,,,0.00,weatherlink.com 1.10,2013-06-29 15:21:00,
2013-06-29 10:36:00,87.4,52.0,29.76,ESE,118,0.0,2.0,30,0.00,,,0.00,weatherlink.com 1.10,2013-06-29 15:36:00,
2013-06-29 10:52:00,87.7,53.0,29.76,ESE,111,0.0,6.0,30,0.00,,,0.00,weatherlink.com 1.10,2013-06-29 15:52:00,
2013-06-29 11:07:00,88.3,52.0,29.76,ESE,107,0.0,3.0,29,0.00,,,0.00,weatherlink.com 1.10,2013-06-29 16:07:00,
2013-06-29 11:22:00,89.4,51.0,29.76,SE,135,1.0,4.0,27,0.00,,,0.00,weatherlink.com 1.10,2013-06-29 16:22:00,
2013-06-29 11:37:00,90.1,52.0,29.76,SE,127,0.0,9.0,27,0.00,,,0.00,weatherlink.com 1.10,2013-06-29 16:37:00,
2013-06-29 11:52:00,91.2,53.0,29.75,SSW,212,1.0,3.0,27,0.00,,,0.00,weatherlink.com 1.10,2013-06-29 16:52:00,
2013-06-29 12:07:00,91.8,50.0,29.75,ESE,107,0.0,7.0,24,0.00,,,0.00,weatherlink.com 1.10,2013-06-29 17:07:00,
2013-06-29 12:22:00,93.3,50.0,29.75,ESE,123,1.0,10.0,23,0.00,,,0.00,weatherlink.com 1.10,2013-06-29 17:22:00,
2013-06-29 12:37:00,93.6,49.0,29.75,ESE,106,5.0,10.0,22,0.00,,,0.00,weatherlink.com 1.10,2013-06-29 17:37:00,
2013-06-29 12:52:00,93.6,47.0,29.75,ESE,119,1.0,9.0,20,0.00,,,0.00,weatherlink.com 1.10,2013-06-29 17:52:00,
2013-06-29 13:07:00,94.8,48.0,29.74,NE,42,2.0,7.0,20,0.00,,,0.00,weatherlink.com 1.10,2013-06-29 18:07:00,
2013-06-29 13:22:00,92.8,47.0,29.74,ESE,113,1.0,7.0,21,0.00,,,0.00,weatherlink.com 1.10,2013-06-29 18:22:00,
2013-06-29 13:37:00,95.6,49.0,29.73,SSE,157,1.0,8.0,20,0.00,,,0.00,weatherlink.com 1.10,2013-06-29 18:37:00,
2013-06-29 13:52:00,97.3,49.0,29.73,SE,135,2.0,6.0,19,0.00,,,0.00,weatherlink.com 1.10,2013-06-29 18:52:00,
2013-06-29 14:07:00,91.9,47.0,29.72,ENE,65,0.0,14.0,21,0.00,,,0.00,weatherlink.com 1.10,2013-06-29 19:07:00,
2013-06-29 14:22:00,90.4,49.0,29.72,NW,311,0.0,6.0,24,0.00,,,0.00,weatherlink.com 1.10,2013-06-29 19:22:00,
2013-06-29 14:37:00,90.0,49.0,29.71,WNW,296,0.0,6.0,24,0.00,,,0.00,weatherlink.com 1.10,2013-06-29 19:37:00,
2013-06-29 14:52:00,95.8,50.0,29.70,WNW,284,3.0,6.0,21,0.00,,,0.00,weatherlink.com 1.10,2013-06-29 19:52:00,
2013-06-29 15:07:00,95.7,46.0,29.70,West,278,2.0,6.0,18,0.00,,,0.00,weatherlink.com 1.10,2013-06-29 20:07:00,
2013-06-29 15:22:00,94.9,45.0,29.69,SE,136,3.0,9.0,18,0.00,,,0.00,weatherlink.com 1.10,2013-06-29 20:22:00,
2013-06-29 15:37:00,96.1,48.0,29.69,West,279,3.0,8.0,19,0.00,,,0.00,weatherlink.com 1.10,2013-06-29 20:37:00,
2013-06-29 15:52:00,96.1,46.0,29.69,WSW,253,0.0,6.0,18,0.00,,,0.00,weatherlink.com 1.10,2013-06-29 20:52:00,
2013-06-29 16:07:00,92.2,47.0,29.69,West,279,5.0,15.0,21,0.00,,,0.00,weatherlink.com 1.10,2013-06-29 21:07:00,
2013-06-29 16:22:00,87.2,48.0,29.69,WNW,289,1.0,11.0,26,0.00,,,0.00,weatherlink.com 1.10,2013-06-29 21:22:00,
2013-06-29 16:37:00,87.5,49.0,29.68,WNW,300,1.0,11.0,26,0.00,,,0.00,weatherlink.com 1.10,2013-06-29 21:37:00,
2013-06-29 16:52:00,90.0,46.0,29.68,SE,142,0.0,3.0,22,0.00,,,0.00,weatherlink.com 1.10,2013-06-29 21:52:00,
2013-06-29 17:07:00,90.4,47.0,29.67,West,271,0.0,7.0,22,0.00,,,0.00,weatherlink.com 1.10,2013-06-29 22:07:00,
2013-06-29 17:22:00,93.6,48.0,29.67,ESE,123,3.0,11.0,21,0.00,,,0.00,weatherlink.com 1.10,2013-06-29 22:22:00,
2013-06-29 17:38:00,91.8,44.0,29.66,West,278,0.0,8.0,19,0.00,,,0.00,weatherlink.com 1.10,2013-06-29 22:38:00,
2013-06-29 17:53:00,91.4,46.0,29.65,ESE,115,3.0,8.0,21,0.00,,,0.00,weatherlink.com 1.10,2013-06-29 22:53:00,
2013-06-29 18:08:00,90.5,47.0,29.65,ESE,117,9.0,9.0,22,0.00,,,0.00,weatherlink.com 1.10,2013-06-29 23:08:00,
2013-06-29 18:23:00,89.9,45.0,29.64,ESE,104,1.0,7.0,21,0.00,,,0.00,weatherlink.com 1.10,2013-06-29 23:23:00,
2013-06-29 18:38:00,90.2,45.0,29.64,ESE,122,3.0,8.0,21,0.00,,,0.00,weatherlink.com 1.10,2013-06-29 23:38:00,
2013-06-29 18:53:00,91.7,47.0,29.64,ESE,121,2.0,3.0,21,0.00,,,0.00,weatherlink.com 1.10,2013-06-29 23:53:00,
2013-06-29 19:08:00,91.8,47.0,29.64,ESE,113,0.0,4.0,21,0.00,,,0.00,weatherlink.com 1.10,2013-06-30 00:08:00,
2013-06-29 19:23:00,91.5,46.0,29.64,SE,130,2.0,3.0,21,0.00,,,0.00,weatherlink.com 1.10,2013-06-30 00:23:00,
2013-06-29 19:38:00,90.5,48.0,29.64,WSW,254,0.0,4.0,23,0.00,,,0.00,weatherlink.com 1.10,2013-06-30 00:38:00,
2013-06-29 19:53:00,89.9,47.0,29.64,WSW,254,0.0,2.0,23,0.00,,,0.00,weatherlink.com 1.10,2013-06-30 00:53:00,
2013-06-29 20:08:00,89.4,49.0,29.64,WSW,254,0.0,2.0,25,0.00,,,0.00,weatherlink.com 1.10,2013-06-30 01:08:00,
2013-06-29 20:23:00,89.2,47.0,29.64,WSW,254,0.0,0.0,23,0.00,,,0.00,weatherlink.com 1.10,2013-06-30 01:23:00,
2013-06-29 20:38:00,88.0,48.0,29.64,WSW,254,0.0,0.0,25,0.00,,,0.00,weatherlink.com 1.10,2013-06-30 01:38:00,
2013-06-29 20:53:00,87.2,47.0,29.64,WSW,254,0.0,0.0,25,0.00,,,0.00,weatherlink.com 1.10,2013-06-30 01:53:00,
2013-06-29 21:08:00,85.7,49.0,29.64,WSW,251,0.0,1.0,28,0.00,,,0.00,weatherlink.com 1.10,2013-06-30 02:08:00,
2013-06-29 21:23:00,85.3,48.0,29.64,WSW,244,0.0,2.0,27,0.00,,,0.00,weatherlink.com 1.10,2013-06-30 02:23:00,
2013-06-29 21:38:00,84.5,49.0,29.64,SSW,202,0.0,2.0,29,0.00,,,0.00,weatherlink.com 1.10,2013-06-30 02:38:00,
2013-06-29 21:53:00,84.3,49.0,29.65,SSW,201,0.0,1.0,29,0.00,,,0.00,weatherlink.com 1.10,2013-06-30 02:53:00,
2013-06-29 22:08:00,83.3,47.0,29.65,SSW,201,0.0,1.0,28,0.00,,,0.00,weatherlink.com 1.10,2013-06-30 03:08:00,
2013-06-29 22:23:00,83.2,49.0,29.66,SSW,201,0.0,1.0,30,0.00,,,0.00,weatherlink.com 1.10,2013-06-30 03:23:00,
2013-06-29 22:38:00,82.3,49.0,29.67,SSW,201,0.0,0.0,31,0.00,,,0.00,weatherlink.com 1.10,2013-06-30 03:38:00,
2013-06-29 22:53:00,82.0,48.0,29.67,SW,236,0.0,2.0,31,0.00,,,0.00,weatherlink.com 1.10,2013-06-30 03:53:00,
2013-06-29 23:08:00,81.6,49.0,29.68,WSW,252,0.0,4.0,32,0.00,,,0.00,weatherlink.com 1.10,2013-06-30 04:08:00,
2013-06-29 23:23:00,80.7,47.0,29.68,SW,227,0.0,1.0,31,0.00,,,0.00,weatherlink.com 1.10,2013-06-30 04:23:00,
2013-06-29 23:38:00,80.1,48.0,29.69,NW,309,0.0,3.0,32,0.00,,,0.00,weatherlink.com 1.10,2013-06-30 04:38:00,
2013-06-29 23:53:00,79.5,49.0,29.69,NW,310,0.0,1.0,34,0.00,,,0.00,weatherlink.com 1.10,2013-06-30 04:53:00,